Airfield :







YOU CAN JOIN US ON...

 
LOGIN :

Register | Disclaimer

   EN    FR    IT 

 









Legend :    VFR   Marginal VFR   IFR   Intensive IFR   Very Intensive IFR
Visi :
Ceiling :
>= 8 km
>= 3000ft
5 to 8 km
1000 to 3000 ft
1500m to 5 km
500 to 1000 ft
800 to 1500m
200 to 500 ft
< 800m
< 200 ft
Symbols :   Thunderstorms  Fog  Heavy snow  Heavy precipitations  Wind > 20 kt






- Airport Elevation : 335 ft
- IATA code : BTV


KBTV - Burlington International

CURRENT METAR :
  • 201629Z 35009KT 9SM -RA BKN005 BKN015 OVC027 13/12 A3021 RMK AO2 CIG 003V009 P0002 T01280117

EXPIRED METARs :
  • 201623Z 32012KT 9SM -RA SCT007 BKN016 OVC028 14/12 A3021 RMK AO2 P0002 T01390122
  • 201554Z 26004KT 5SM -RA BR BKN020 OVC029 14/13 A3020 RMK AO2 SLP227 P0003 T01390128
  • 201528Z 23005KT 4SM -RA BR FEW009 BKN021 OVC029 14/13 A3019 RMK AO2 P0003 T01390128
  • 201514Z 27007KT 3SM -RA BR BKN009 OVC025 14/12 A3019 RMK AO2 CIG 006V015 P0001 T01390122
  • 201454Z 27007KT 4SM -RA BR SCT009 BKN013 OVC022 14/12 A3018 RMK AO2 SLP220 P0002 60002 T01390122 53026
  • 201438Z 24007KT 4SM -RA BR SCT021 BKN026 OVC033 14/12 A3017 RMK AO2 PRESRR P0002 T01440122
  • 201354Z 18014G20KT 10SM -RA OVC042 14/11 A3014 RMK AO2 RAB11E23B50 SLP206 P0000 T01440111

TAF KBTV
Valid from the 20 at 17:00 until the 21 at 12:00 UTC


201633Z 2017/2112 35010KT P6SM -SHRA BKN007 OVC025
FM201730 35009KT P6SM VCSH BKN015
FM202000 33008KT P6SM VCSH OVC020
FM202200 35006KT P6SM OVC035
FM210600 VRB04KT P6SM VCSH OVC030
KZBW FIR / North America



MET'MAP, your aeronautical weather chart ! - Copyright ORBIFLY December 2007 - Disclaimer

ORBIFLY MET'MAP TEAM :

Programming & Development : Alexandra Zaïnal
Concept & original design : Baudouin d'Aumeries
Assistance for programming : Marc-Olivier Méhu
Technical & hardware support : Manuel Goepfert

Contact : metmap@orbifly.com




SOURCES & CREDITS :

   NOAA